sensor_id;sensor_type;location;lat;lon;timestamp;P1;durP1;ratioP1;P2;durP2;ratioP2
22268;SDS011;11303;50.772;19.670;2023-11-18T00:00:59;28.98;;;14.38;;
22268;SDS011;11303;50.772;19.670;2023-11-18T00:03:01;19.33;;;11.23;;
22268;SDS011;11303;50.772;19.670;2023-11-18T00:05:03;24.30;;;13.93;;
22268;SDS011;11303;50.772;19.670;2023-11-18T00:07:05;22.17;;;12.07;;
22268;SDS011;11303;50.772;19.670;2023-11-18T00:09:07;24.02;;;13.27;;
22268;SDS011;11303;50.772;19.670;2023-11-18T00:11:09;26.30;;;13.13;;
22268;SDS011;11303;50.772;19.670;2023-11-18T00:13:12;22.08;;;11.98;;
22268;SDS011;11303;50.772;19.670;2023-11-18T00:15:14;23.77;;;13.80;;
22268;SDS011;11303;50.772;19.670;2023-11-18T00:17:16;22.42;;;12.55;;
22268;SDS011;11303;50.772;19.670;2023-11-18T00:19:17;21.45;;;12.70;;
22268;SDS011;11303;50.772;19.670;2023-11-18T00:21:19;23.90;;;13.25;;
22268;SDS011;11303;50.772;19.670;2023-11-18T00:23:21;26.83;;;13.55;;
22268;SDS011;11303;50.772;19.670;2023-11-18T00:25:23;23.85;;;13.57;;
22268;SDS011;11303;50.772;19.670;2023-11-18T00:27:25;24.10;;;12.40;;
22268;SDS011;11303;50.772;19.670;2023-11-18T00:29:26;20.85;;;11.80;;
22268;SDS011;11303;50.772;19.670;2023-11-18T00:31:28;26.05;;;13.10;;
22268;SDS011;11303;50.772;19.670;2023-11-18T00:33:31;24.05;;;12.43;;
22268;SDS011;11303;50.772;19.670;2023-11-18T00:35:33;23.40;;;12.35;;
22268;SDS011;11303;50.772;19.670;2023-11-18T00:37:35;27.38;;;13.40;;
22268;SDS011;11303;50.772;19.670;2023-11-18T00:39:37;21.17;;;11.75;;
22268;SDS011;11303;50.772;19.670;2023-11-18T00:41:38;24.38;;;12.10;;
22268;SDS011;11303;50.772;19.670;2023-11-18T00:43:40;20.10;;;11.80;;
22268;SDS011;11303;50.772;19.670;2023-11-18T00:45:42;21.02;;;11.88;;
22268;SDS011;11303;50.772;19.670;2023-11-18T00:47:44;20.15;;;10.93;;
22268;SDS011;11303;50.772;19.670;2023-11-18T00:49:46;20.55;;;11.95;;
22268;SDS011;11303;50.772;19.670;2023-11-18T00:51:48;22.83;;;11.77;;
22268;SDS011;11303;50.772;19.670;2023-11-18T00:53:50;19.30;;;11.45;;
22268;SDS011;11303;50.772;19.670;2023-11-18T00:55:52;23.15;;;12.20;;
22268;SDS011;11303;50.772;19.670;2023-11-18T00:57:53;19.08;;;11.32;;
22268;SDS011;11303;50.772;19.670;2023-11-18T00:59:55;20.27;;;10.65;;
22268;SDS011;11303;50.772;19.670;2023-11-18T01:01:57;18.63;;;10.82;;
22268;SDS011;11303;50.772;19.670;2023-11-18T01:03:59;17.27;;;10.40;;
22268;SDS011;11303;50.772;19.670;2023-11-18T01:06:01;22.25;;;10.80;;
22268;SDS011;11303;50.772;19.670;2023-11-18T01:08:03;19.55;;;10.88;;
22268;SDS011;11303;50.772;19.670;2023-11-18T01:10:06;19.30;;;11.02;;
22268;SDS011;11303;50.772;19.670;2023-11-18T01:12:09;22.02;;;11.40;;
22268;SDS011;11303;50.772;19.670;2023-11-18T01:14:11;19.52;;;10.82;;
22268;SDS011;11303;50.772;19.670;2023-11-18T01:16:13;17.63;;;11.10;;
22268;SDS011;11303;50.772;19.670;2023-11-18T01:18:16;17.70;;;10.75;;
22268;SDS011;11303;50.772;19.670;2023-11-18T01:20:19;18.10;;;11.00;;
22268;SDS011;11303;50.772;19.670;2023-11-18T01:22:24;15.15;;;8.27;;
22268;SDS011;11303;50.772;19.670;2023-11-18T01:24:26;15.85;;;9.07;;
22268;SDS011;11303;50.772;19.670;2023-11-18T01:26:28;15.63;;;8.73;;
22268;SDS011;11303;50.772;19.670;2023-11-18T01:28:29;18.70;;;10.00;;
22268;SDS011;11303;50.772;19.670;2023-11-18T01:30:32;16.10;;;9.57;;
22268;SDS011;11303;50.772;19.670;2023-11-18T01:32:34;16.63;;;9.57;;
22268;SDS011;11303;50.772;19.670;2023-11-18T01:34:36;14.52;;;8.50;;
22268;SDS011;11303;50.772;19.670;2023-11-18T01:36:41;15.55;;;9.50;;
22268;SDS011;11303;50.772;19.670;2023-11-18T01:38:45;13.85;;;8.32;;
22268;SDS011;11303;50.772;19.670;2023-11-18T01:40:47;16.08;;;10.75;;
22268;SDS011;11303;50.772;19.670;2023-11-18T01:42:49;14.48;;;8.80;;
22268;SDS011;11303;50.772;19.670;2023-11-18T01:44:51;14.63;;;9.07;;
22268;SDS011;11303;50.772;19.670;2023-11-18T01:46:53;13.90;;;8.77;;
22268;SDS011;11303;50.772;19.670;2023-11-18T01:48:56;15.00;;;9.68;;
22268;SDS011;11303;50.772;19.670;2023-11-18T01:51:00;14.25;;;8.45;;
22268;SDS011;11303;50.772;19.670;2023-11-18T01:53:05;14.00;;;9.73;;
22268;SDS011;11303;50.772;19.670;2023-11-18T01:55:09;14.15;;;9.10;;
22268;SDS011;11303;50.772;19.670;2023-11-18T01:57:11;16.48;;;10.15;;
22268;SDS011;11303;50.772;19.670;2023-11-18T01:59:15;14.88;;;9.52;;
22268;SDS011;11303;50.772;19.670;2023-11-18T02:01:21;17.75;;;10.10;;
22268;SDS011;11303;50.772;19.670;2023-11-18T02:03:23;18.55;;;10.27;;
22268;SDS011;11303;50.772;19.670;2023-11-18T02:05:25;13.63;;;9.00;;
22268;SDS011;11303;50.772;19.670;2023-11-18T02:07:27;13.88;;;9.18;;
22268;SDS011;11303;50.772;19.670;2023-11-18T02:09:30;14.98;;;9.07;;
22268;SDS011;11303;50.772;19.670;2023-11-18T02:11:37;15.02;;;9.82;;
22268;SDS011;11303;50.772;19.670;2023-11-18T02:13:44;13.73;;;9.23;;
22268;SDS011;11303;50.772;19.670;2023-11-18T02:15:49;14.30;;;9.18;;
22268;SDS011;11303;50.772;19.670;2023-11-18T02:17:52;13.88;;;8.88;;
22268;SDS011;11303;50.772;19.670;2023-11-18T02:19:58;16.08;;;10.07;;
22268;SDS011;11303;50.772;19.670;2023-11-18T02:22:01;14.55;;;9.25;;
22268;SDS011;11303;50.772;19.670;2023-11-18T02:24:03;12.27;;;8.30;;
22268;SDS011;11303;50.772;19.670;2023-11-18T02:26:06;12.15;;;8.07;;
22268;SDS011;11303;50.772;19.670;2023-11-18T02:28:07;11.55;;;8.15;;
22268;SDS011;11303;50.772;19.670;2023-11-18T02:30:13;12.10;;;7.13;;
22268;SDS011;11303;50.772;19.670;2023-11-18T02:34:26;10.30;;;6.78;;
22268;SDS011;11303;50.772;19.670;2023-11-18T02:36:31;10.98;;;7.38;;
22268;SDS011;11303;50.772;19.670;2023-11-18T02:38:39;10.57;;;7.13;;
22268;SDS011;11303;50.772;19.670;2023-11-18T02:40:48;10.35;;;6.57;;
22268;SDS011;11303;50.772;19.670;2023-11-18T02:42:54;11.38;;;7.20;;
22268;SDS011;11303;50.772;19.670;2023-11-18T02:44:58;10.80;;;6.88;;
22268;SDS011;11303;50.772;19.670;2023-11-18T02:47:01;10.65;;;6.80;;
22268;SDS011;11303;50.772;19.670;2023-11-18T02:49:03;10.05;;;6.55;;
22268;SDS011;11303;50.772;19.670;2023-11-18T02:51:05;8.65;;;6.15;;
22268;SDS011;11303;50.772;19.670;2023-11-18T02:53:09;7.70;;;6.15;;
22268;SDS011;11303;50.772;19.670;2023-11-18T02:55:11;11.32;;;6.97;;
22268;SDS011;11303;50.772;19.670;2023-11-18T02:57:13;9.93;;;6.32;;
22268;SDS011;11303;50.772;19.670;2023-11-18T02:59:16;8.68;;;6.13;;
22268;SDS011;11303;50.772;19.670;2023-11-18T03:01:17;9.57;;;6.50;;
22268;SDS011;11303;50.772;19.670;2023-11-18T03:03:21;9.52;;;6.60;;
22268;SDS011;11303;50.772;19.670;2023-11-18T03:05:22;8.75;;;6.28;;
22268;SDS011;11303;50.772;19.670;2023-11-18T03:07:24;9.32;;;6.43;;
22268;SDS011;11303;50.772;19.670;2023-11-18T03:09:28;11.35;;;7.07;;
22268;SDS011;11303;50.772;19.670;2023-11-18T03:11:30;10.55;;;6.22;;
22268;SDS011;11303;50.772;19.670;2023-11-18T03:13:32;10.00;;;6.60;;
22268;SDS011;11303;50.772;19.670;2023-11-18T03:15:34;9.05;;;6.65;;
22268;SDS011;11303;50.772;19.670;2023-11-18T03:17:37;10.82;;;7.40;;
22268;SDS011;11303;50.772;19.670;2023-11-18T03:19:39;8.80;;;6.22;;
22268;SDS011;11303;50.772;19.670;2023-11-18T03:21:43;13.02;;;7.28;;
22268;SDS011;11303;50.772;19.670;2023-11-18T03:23:44;11.30;;;7.32;;
22268;SDS011;11303;50.772;19.670;2023-11-18T03:25:46;11.50;;;7.95;;
22268;SDS011;11303;50.772;19.670;2023-11-18T03:27:48;10.40;;;7.50;;
22268;SDS011;11303;50.772;19.670;2023-11-18T03:29:50;11.10;;;7.80;;
22268;SDS011;11303;50.772;19.670;2023-11-18T03:31:54;13.00;;;8.40;;
22268;SDS011;11303;50.772;19.670;2023-11-18T03:33:55;10.95;;;7.65;;
22268;SDS011;11303;50.772;19.670;2023-11-18T03:35:57;11.77;;;8.20;;
22268;SDS011;11303;50.772;19.670;2023-11-18T03:37:59;14.50;;;8.90;;
22268;SDS011;11303;50.772;19.670;2023-11-18T03:40:01;12.15;;;8.40;;
22268;SDS011;11303;50.772;19.670;2023-11-18T03:42:03;13.07;;;9.07;;
22268;SDS011;11303;50.772;19.670;2023-11-18T03:44:05;12.95;;;8.85;;
22268;SDS011;11303;50.772;19.670;2023-11-18T03:46:06;13.68;;;8.60;;
22268;SDS011;11303;50.772;19.670;2023-11-18T03:48:08;13.90;;;7.93;;
22268;SDS011;11303;50.772;19.670;2023-11-18T03:50:15;15.48;;;9.23;;
22268;SDS011;11303;50.772;19.670;2023-11-18T03:52:17;14.48;;;8.05;;
22268;SDS011;11303;50.772;19.670;2023-11-18T03:54:19;11.82;;;7.65;;
22268;SDS011;11303;50.772;19.670;2023-11-18T03:56:21;12.63;;;6.68;;
22268;SDS011;11303;50.772;19.670;2023-11-18T03:58:23;11.63;;;7.45;;
22268;SDS011;11303;50.772;19.670;2023-11-18T04:00:24;13.43;;;8.27;;
22268;SDS011;11303;50.772;19.670;2023-11-18T04:02:31;15.82;;;7.97;;
22268;SDS011;11303;50.772;19.670;2023-11-18T04:04:33;12.55;;;6.60;;
22268;SDS011;11303;50.772;19.670;2023-11-18T04:06:35;12.55;;;8.52;;
22268;SDS011;11303;50.772;19.670;2023-11-18T04:08:36;15.50;;;8.77;;
22268;SDS011;11303;50.772;19.670;2023-11-18T04:10:38;13.55;;;7.70;;
22268;SDS011;11303;50.772;19.670;2023-11-18T04:12:40;11.43;;;6.45;;
22268;SDS011;11303;50.772;19.670;2023-11-18T04:14:43;13.77;;;6.93;;
22268;SDS011;11303;50.772;19.670;2023-11-18T04:16:45;13.63;;;8.32;;
22268;SDS011;11303;50.772;19.670;2023-11-18T04:18:47;8.52;;;5.50;;
22268;SDS011;11303;50.772;19.670;2023-11-18T04:20:49;12.90;;;7.53;;
22268;SDS011;11303;50.772;19.670;2023-11-18T04:22:52;13.75;;;6.72;;
22268;SDS011;11303;50.772;19.670;2023-11-18T04:24:53;13.20;;;7.22;;
22268;SDS011;11303;50.772;19.670;2023-11-18T04:26:56;13.52;;;7.40;;
22268;SDS011;11303;50.772;19.670;2023-11-18T04:28:58;13.25;;;7.72;;
22268;SDS011;11303;50.772;19.670;2023-11-18T04:31:00;12.55;;;6.75;;
22268;SDS011;11303;50.772;19.670;2023-11-18T04:33:04;15.98;;;8.57;;
22268;SDS011;11303;50.772;19.670;2023-11-18T04:35:06;12.82;;;7.35;;
22268;SDS011;11303;50.772;19.670;2023-11-18T04:37:08;17.35;;;9.38;;
22268;SDS011;11303;50.772;19.670;2023-11-18T04:39:10;18.90;;;8.57;;
22268;SDS011;11303;50.772;19.670;2023-11-18T04:41:17;16.70;;;10.23;;
22268;SDS011;11303;50.772;19.670;2023-11-18T04:43:19;18.70;;;10.18;;
22268;SDS011;11303;50.772;19.670;2023-11-18T04:45:35;16.92;;;10.48;;
22268;SDS011;11303;50.772;19.670;2023-11-18T04:47:37;20.75;;;10.52;;
22268;SDS011;11303;50.772;19.670;2023-11-18T04:49:40;18.98;;;10.23;;
22268;SDS011;11303;50.772;19.670;2023-11-18T04:51:42;20.55;;;9.70;;
22268;SDS011;11303;50.772;19.670;2023-11-18T04:53:43;20.02;;;11.27;;
22268;SDS011;11303;50.772;19.670;2023-11-18T04:55:46;17.77;;;9.88;;
22268;SDS011;11303;50.772;19.670;2023-11-18T04:57:48;19.05;;;10.13;;
22268;SDS011;11303;50.772;19.670;2023-11-18T04:59:50;19.73;;;10.80;;
22268;SDS011;11303;50.772;19.670;2023-11-18T05:01:51;23.38;;;11.52;;
22268;SDS011;11303;50.772;19.670;2023-11-18T05:03:54;19.50;;;10.90;;
22268;SDS011;11303;50.772;19.670;2023-11-18T05:05:56;18.58;;;10.30;;
22268;SDS011;11303;50.772;19.670;2023-11-18T05:07:58;18.23;;;10.45;;
22268;SDS011;11303;50.772;19.670;2023-11-18T05:10:02;21.15;;;10.15;;
22268;SDS011;11303;50.772;19.670;2023-11-18T05:12:04;20.92;;;11.13;;
22268;SDS011;11303;50.772;19.670;2023-11-18T05:14:06;21.63;;;10.25;;
22268;SDS011;11303;50.772;19.670;2023-11-18T05:16:08;19.92;;;11.27;;
22268;SDS011;11303;50.772;19.670;2023-11-18T05:18:12;23.08;;;11.18;;
22268;SDS011;11303;50.772;19.670;2023-11-18T05:20:17;24.73;;;12.45;;
22268;SDS011;11303;50.772;19.670;2023-11-18T05:22:19;22.45;;;11.88;;
22268;SDS011;11303;50.772;19.670;2023-11-18T05:24:22;34.78;;;13.75;;
22268;SDS011;11303;50.772;19.670;2023-11-18T05:26:23;27.67;;;14.00;;
22268;SDS011;11303;50.772;19.670;2023-11-18T05:28:25;31.17;;;14.85;;
22268;SDS011;11303;50.772;19.670;2023-11-18T05:30:27;31.73;;;15.05;;
22268;SDS011;11303;50.772;19.670;2023-11-18T05:32:29;31.23;;;15.60;;
22268;SDS011;11303;50.772;19.670;2023-11-18T05:34:31;30.35;;;13.25;;
22268;SDS011;11303;50.772;19.670;2023-11-18T05:36:33;34.03;;;15.15;;
22268;SDS011;11303;50.772;19.670;2023-11-18T05:38:39;36.03;;;16.60;;
22268;SDS011;11303;50.772;19.670;2023-11-18T05:40:40;38.65;;;16.80;;
22268;SDS011;11303;50.772;19.670;2023-11-18T05:42:45;39.10;;;16.35;;
22268;SDS011;11303;50.772;19.670;2023-11-18T05:44:49;36.97;;;15.95;;
22268;SDS011;11303;50.772;19.670;2023-11-18T05:46:59;32.28;;;15.13;;
22268;SDS011;11303;50.772;19.670;2023-11-18T05:49:01;36.22;;;15.48;;
22268;SDS011;11303;50.772;19.670;2023-11-18T05:51:09;31.00;;;14.40;;
22268;SDS011;11303;50.772;19.670;2023-11-18T05:53:11;30.20;;;14.30;;
22268;SDS011;11303;50.772;19.670;2023-11-18T05:55:13;23.67;;;11.30;;
22268;SDS011;11303;50.772;19.670;2023-11-18T05:57:15;29.58;;;12.90;;
22268;SDS011;11303;50.772;19.670;2023-11-18T05:59:17;28.25;;;12.10;;
22268;SDS011;11303;50.772;19.670;2023-11-18T06:01:19;24.85;;;11.38;;
22268;SDS011;11303;50.772;19.670;2023-11-18T06:03:22;25.60;;;12.73;;
22268;SDS011;11303;50.772;19.670;2023-11-18T06:05:24;30.23;;;13.52;;
22268;SDS011;11303;50.772;19.670;2023-11-18T06:07:27;30.08;;;13.98;;
22268;SDS011;11303;50.772;19.670;2023-11-18T06:09:30;30.38;;;15.80;;
22268;SDS011;11303;50.772;19.670;2023-11-18T06:11:32;39.13;;;16.65;;
22268;SDS011;11303;50.772;19.670;2023-11-18T06:13:33;56.10;;;21.67;;
22268;SDS011;11303;50.772;19.670;2023-11-18T06:15:38;37.22;;;15.57;;
22268;SDS011;11303;50.772;19.670;2023-11-18T06:17:40;38.35;;;15.27;;
22268;SDS011;11303;50.772;19.670;2023-11-18T06:19:45;37.22;;;16.90;;
22268;SDS011;11303;50.772;19.670;2023-11-18T06:21:47;42.92;;;17.75;;
22268;SDS011;11303;50.772;19.670;2023-11-18T06:23:49;42.88;;;17.60;;
22268;SDS011;11303;50.772;19.670;2023-11-18T06:25:51;36.45;;;15.32;;
22268;SDS011;11303;50.772;19.670;2023-11-18T06:27:53;36.35;;;16.27;;
22268;SDS011;11303;50.772;19.670;2023-11-18T06:29:55;35.47;;;15.23;;
22268;SDS011;11303;50.772;19.670;2023-11-18T06:31:57;40.38;;;16.08;;
22268;SDS011;11303;50.772;19.670;2023-11-18T06:33:59;46.22;;;18.45;;
22268;SDS011;11303;50.772;19.670;2023-11-18T06:36:00;45.05;;;16.60;;
22268;SDS011;11303;50.772;19.670;2023-11-18T06:38:02;43.00;;;18.02;;
22268;SDS011;11303;50.772;19.670;2023-11-18T06:40:04;37.08;;;15.77;;
22268;SDS011;11303;50.772;19.670;2023-11-18T06:42:17;45.45;;;19.88;;
22268;SDS011;11303;50.772;19.670;2023-11-18T06:44:19;43.97;;;17.48;;
22268;SDS011;11303;50.772;19.670;2023-11-18T06:46:25;45.63;;;19.33;;
22268;SDS011;11303;50.772;19.670;2023-11-18T06:48:30;20.70;;;9.02;;
22268;SDS011;11303;50.772;19.670;2023-11-18T06:50:33;23.23;;;10.77;;
22268;SDS011;11303;50.772;19.670;2023-11-18T06:52:36;25.63;;;11.88;;
22268;SDS011;11303;50.772;19.670;2023-11-18T06:54:42;0.10;;;0.10;;
22268;SDS011;11303;50.772;19.670;2023-11-18T06:56:44;0.20;;;0.20;;
22268;SDS011;11303;50.772;19.670;2023-11-18T06:58:47;0.05;;;0.05;;
22268;SDS011;11303;50.772;19.670;2023-11-18T07:00:48;0.10;;;0.10;;
22268;SDS011;11303;50.772;19.670;2023-11-18T07:02:50;0.30;;;0.30;;
22268;SDS011;11303;50.772;19.670;2023-11-18T07:04:52;0.13;;;0.13;;
22268;SDS011;11303;50.772;19.670;2023-11-18T07:06:54;0.52;;;0.52;;
22268;SDS011;11303;50.772;19.670;2023-11-18T07:08:55;0.22;;;0.22;;
22268;SDS011;11303;50.772;19.670;2023-11-18T07:11:02;0.43;;;0.43;;
22268;SDS011;11303;50.772;19.670;2023-11-18T07:13:04;0.10;;;0.10;;
22268;SDS011;11303;50.772;19.670;2023-11-18T07:15:06;0.10;;;0.10;;
22268;SDS011;11303;50.772;19.670;2023-11-18T07:17:11;0.45;;;0.45;;
22268;SDS011;11303;50.772;19.670;2023-11-18T07:19:13;0.57;;;0.57;;
22268;SDS011;11303;50.772;19.670;2023-11-18T07:21:22;0.82;;;0.82;;
22268;SDS011;11303;50.772;19.670;2023-11-18T07:23:25;1.23;;;1.13;;
22268;SDS011;11303;50.772;19.670;2023-11-18T07:25:27;0.50;;;0.50;;
22268;SDS011;11303;50.772;19.670;2023-11-18T07:27:29;0.28;;;0.28;;
22268;SDS011;11303;50.772;19.670;2023-11-18T07:29:34;0.68;;;0.28;;
22268;SDS011;11303;50.772;19.670;2023-11-18T07:31:37;2.22;;;1.27;;
22268;SDS011;11303;50.772;19.670;2023-11-18T07:33:39;0.38;;;0.38;;
22268;SDS011;11303;50.772;19.670;2023-11-18T07:35:45;0.10;;;0.10;;
22268;SDS011;11303;50.772;19.670;2023-11-18T07:37:49;0.03;;;0.03;;
22268;SDS011;11303;50.772;19.670;2023-11-18T07:39:51;0.85;;;0.85;;
22268;SDS011;11303;50.772;19.670;2023-11-18T07:41:53;0.43;;;0.43;;
22268;SDS011;11303;50.772;19.670;2023-11-18T07:43:55;0.10;;;0.10;;
22268;SDS011;11303;50.772;19.670;2023-11-18T07:45:57;0.30;;;0.30;;
22268;SDS011;11303;50.772;19.670;2023-11-18T07:47:59;1.17;;;0.30;;
22268;SDS011;11303;50.772;19.670;2023-11-18T07:50:01;0.10;;;0.10;;
22268;SDS011;11303;50.772;19.670;2023-11-18T07:52:06;0.10;;;0.10;;
22268;SDS011;11303;50.772;19.670;2023-11-18T07:54:07;0.17;;;0.17;;
22268;SDS011;11303;50.772;19.670;2023-11-18T07:56:11;0.10;;;0.10;;
22268;SDS011;11303;50.772;19.670;2023-11-18T07:58:14;0.00;;;0.00;;
22268;SDS011;11303;50.772;19.670;2023-11-18T08:00:16;2.72;;;1.17;;
22268;SDS011;11303;50.772;19.670;2023-11-18T08:02:17;0.20;;;0.20;;
22268;SDS011;11303;50.772;19.670;2023-11-18T08:04:21;0.30;;;0.30;;
22268;SDS011;11303;50.772;19.670;2023-11-18T08:06:23;23.15;;;1.05;;
22268;SDS011;11303;50.772;19.670;2023-11-18T08:08:28;1.10;;;1.08;;
22268;SDS011;11303;50.772;19.670;2023-11-18T08:10:30;0.15;;;0.15;;
22268;SDS011;11303;50.772;19.670;2023-11-18T08:12:34;0.50;;;0.50;;
22268;SDS011;11303;50.772;19.670;2023-11-18T08:14:36;0.10;;;0.10;;
22268;SDS011;11303;50.772;19.670;2023-11-18T08:16:38;0.75;;;0.75;;
22268;SDS011;11303;50.772;19.670;2023-11-18T08:18:40;0.00;;;0.00;;
22268;SDS011;11303;50.772;19.670;2023-11-18T08:20:42;0.20;;;0.20;;
22268;SDS011;11303;50.772;19.670;2023-11-18T08:22:44;0.20;;;0.20;;
22268;SDS011;11303;50.772;19.670;2023-11-18T08:24:47;0.75;;;0.75;;
22268;SDS011;11303;50.772;19.670;2023-11-18T08:26:50;0.13;;;0.13;;
22268;SDS011;11303;50.772;19.670;2023-11-18T08:28:51;0.15;;;0.15;;
22268;SDS011;11303;50.772;19.670;2023-11-18T08:30:53;0.10;;;0.10;;
22268;SDS011;11303;50.772;19.670;2023-11-18T08:32:56;0.95;;;0.73;;
22268;SDS011;11303;50.772;19.670;2023-11-18T08:34:59;0.30;;;0.30;;
22268;SDS011;11303;50.772;19.670;2023-11-18T08:37:01;0.17;;;0.17;;
22268;SDS011;11303;50.772;19.670;2023-11-18T08:39:04;0.00;;;0.00;;
22268;SDS011;11303;50.772;19.670;2023-11-18T08:41:09;0.28;;;0.28;;
22268;SDS011;11303;50.772;19.670;2023-11-18T08:43:11;0.80;;;0.80;;
22268;SDS011;11303;50.772;19.670;2023-11-18T08:45:14;0.05;;;0.05;;
22268;SDS011;11303;50.772;19.670;2023-11-18T08:47:17;0.05;;;0.05;;
22268;SDS011;11303;50.772;19.670;2023-11-18T08:49:20;2.40;;;0.90;;
22268;SDS011;11303;50.772;19.670;2023-11-18T08:51:23;2.10;;;1.30;;
22268;SDS011;11303;50.772;19.670;2023-11-18T08:53:27;0.10;;;0.10;;
22268;SDS011;11303;50.772;19.670;2023-11-18T08:55:32;0.60;;;0.60;;
22268;SDS011;11303;50.772;19.670;2023-11-18T08:57:44;2.53;;;1.45;;
22268;SDS011;11303;50.772;19.670;2023-11-18T08:59:54;1.83;;;1.73;;
22268;SDS011;11303;50.772;19.670;2023-11-18T09:02:00;2.13;;;1.98;;
22268;SDS011;11303;50.772;19.670;2023-11-18T09:04:07;4.65;;;1.00;;
22268;SDS011;11303;50.772;19.670;2023-11-18T09:06:11;1.40;;;0.73;;
22268;SDS011;11303;50.772;19.670;2023-11-18T09:08:19;0.55;;;0.55;;
22268;SDS011;11303;50.772;19.670;2023-11-18T09:10:23;2.17;;;1.00;;
22268;SDS011;11303;50.772;19.670;2023-11-18T09:12:25;0.40;;;0.40;;
22268;SDS011;11303;50.772;19.670;2023-11-18T09:14:28;0.47;;;0.47;;
22268;SDS011;11303;50.772;19.670;2023-11-18T09:16:29;0.00;;;0.00;;
22268;SDS011;11303;50.772;19.670;2023-11-18T09:18:32;0.35;;;0.35;;
22268;SDS011;11303;50.772;19.670;2023-11-18T09:20:39;0.40;;;0.40;;
22268;SDS011;11303;50.772;19.670;2023-11-18T09:22:42;0.00;;;0.00;;
22268;SDS011;11303;50.772;19.670;2023-11-18T09:24:44;0.15;;;0.15;;
22268;SDS011;11303;50.772;19.670;2023-11-18T09:26:46;0.32;;;0.30;;
22268;SDS011;11303;50.772;19.670;2023-11-18T09:28:51;0.77;;;0.77;;
22268;SDS011;11303;50.772;19.670;2023-11-18T09:30:54;0.63;;;0.60;;
22268;SDS011;11303;50.772;19.670;2023-11-18T09:32:59;0.43;;;0.43;;
22268;SDS011;11303;50.772;19.670;2023-11-18T09:35:04;0.40;;;0.40;;
22268;SDS011;11303;50.772;19.670;2023-11-18T09:37:10;0.52;;;0.52;;
22268;SDS011;11303;50.772;19.670;2023-11-18T09:39:12;0.10;;;0.10;;
22268;SDS011;11303;50.772;19.670;2023-11-18T09:41:30;0.70;;;0.70;;
22268;SDS011;11303;50.772;19.670;2023-11-18T09:43:34;0.10;;;0.10;;
22268;SDS011;11303;50.772;19.670;2023-11-18T09:45:52;0.20;;;0.20;;
22268;SDS011;11303;50.772;19.670;2023-11-18T09:47:56;0.20;;;0.20;;
22268;SDS011;11303;50.772;19.670;2023-11-18T09:50:02;0.00;;;0.00;;
22268;SDS011;11303;50.772;19.670;2023-11-18T09:52:14;0.10;;;0.10;;
22268;SDS011;11303;50.772;19.670;2023-11-18T09:56:56;0.10;;;0.10;;
22268;SDS011;11303;50.772;19.670;2023-11-18T09:59:11;0.03;;;0.03;;
22268;SDS011;11303;50.772;19.670;2023-11-18T10:01:25;0.75;;;0.75;;
22268;SDS011;11303;50.772;19.670;2023-11-18T10:03:29;1.65;;;0.57;;
22268;SDS011;11303;50.772;19.670;2023-11-18T10:05:31;0.13;;;0.13;;
22268;SDS011;11303;50.772;19.670;2023-11-18T10:07:35;0.10;;;0.10;;
22268;SDS011;11303;50.772;19.670;2023-11-18T10:09:39;0.43;;;0.43;;
22268;SDS011;11303;50.772;19.670;2023-11-18T10:11:47;0.60;;;0.60;;
22268;SDS011;11303;50.772;19.670;2023-11-18T10:13:49;0.10;;;0.10;;
22268;SDS011;11303;50.772;19.670;2023-11-18T10:15:51;0.03;;;0.03;;
22268;SDS011;11303;50.772;19.670;2023-11-18T10:17:53;1.13;;;1.08;;
22268;SDS011;11303;50.772;19.670;2023-11-18T10:20:02;0.10;;;0.10;;
22268;SDS011;11303;50.772;19.670;2023-11-18T10:22:21;1.25;;;0.47;;
22268;SDS011;11303;50.772;19.670;2023-11-18T10:24:25;1.20;;;1.10;;
22268;SDS011;11303;50.772;19.670;2023-11-18T10:26:27;0.10;;;0.10;;
22268;SDS011;11303;50.772;19.670;2023-11-18T10:28:31;0.57;;;0.57;;
22268;SDS011;11303;50.772;19.670;2023-11-18T10:30:42;0.00;;;0.00;;
22268;SDS011;11303;50.772;19.670;2023-11-18T10:32:56;0.00;;;0.00;;
22268;SDS011;11303;50.772;19.670;2023-11-18T10:35:08;0.10;;;0.10;;
22268;SDS011;11303;50.772;19.670;2023-11-18T10:37:12;0.22;;;0.22;;
22268;SDS011;11303;50.772;19.670;2023-11-18T10:39:14;2.90;;;1.30;;
22268;SDS011;11303;50.772;19.670;2023-11-18T10:41:18;1.08;;;0.65;;
22268;SDS011;11303;50.772;19.670;2023-11-18T10:43:23;0.00;;;0.00;;
22268;SDS011;11303;50.772;19.670;2023-11-18T10:45:26;0.00;;;0.00;;
22268;SDS011;11303;50.772;19.670;2023-11-18T10:47:32;0.00;;;0.00;;
22268;SDS011;11303;50.772;19.670;2023-11-18T10:49:34;1.42;;;0.82;;
22268;SDS011;11303;50.772;19.670;2023-11-18T10:51:39;0.10;;;0.10;;
22268;SDS011;11303;50.772;19.670;2023-11-18T10:53:42;0.10;;;0.10;;
22268;SDS011;11303;50.772;19.670;2023-11-18T10:55:54;0.10;;;0.10;;
22268;SDS011;11303;50.772;19.670;2023-11-18T10:57:58;1.85;;;1.55;;
22268;SDS011;11303;50.772;19.670;2023-11-18T11:00:04;0.20;;;0.20;;
22268;SDS011;11303;50.772;19.670;2023-11-18T11:02:18;0.00;;;0.00;;
22268;SDS011;11303;50.772;19.670;2023-11-18T11:04:25;1.10;;;0.80;;
22268;SDS011;11303;50.772;19.670;2023-11-18T11:06:27;0.30;;;0.30;;
22268;SDS011;11303;50.772;19.670;2023-11-18T11:08:32;0.20;;;0.20;;
22268;SDS011;11303;50.772;19.670;2023-11-18T11:10:43;0.43;;;0.43;;
22268;SDS011;11303;50.772;19.670;2023-11-18T11:12:55;0.38;;;0.38;;
22268;SDS011;11303;50.772;19.670;2023-11-18T11:15:42;0.50;;;0.50;;
22268;SDS011;11303;50.772;19.670;2023-11-18T11:17:24;0.10;;;0.10;;
22268;SDS011;11303;50.772;19.670;2023-11-18T11:19:37;0.40;;;0.40;;
22268;SDS011;11303;50.772;19.670;2023-11-18T11:21:47;0.00;;;0.00;;
22268;SDS011;11303;50.772;19.670;2023-11-18T11:23:55;0.00;;;0.00;;
22268;SDS011;11303;50.772;19.670;2023-11-18T11:26:12;0.00;;;0.00;;
22268;SDS011;11303;50.772;19.670;2023-11-18T11:28:21;0.68;;;0.68;;
22268;SDS011;11303;50.772;19.670;2023-11-18T11:30:23;0.20;;;0.20;;
22268;SDS011;11303;50.772;19.670;2023-11-18T11:34:54;0.00;;;0.00;;
22268;SDS011;11303;50.772;19.670;2023-11-18T11:36:58;0.00;;;0.00;;
22268;SDS011;11303;50.772;19.670;2023-11-18T11:39:00;0.10;;;0.10;;
22268;SDS011;11303;50.772;19.670;2023-11-18T11:41:04;0.10;;;0.10;;
22268;SDS011;11303;50.772;19.670;2023-11-18T11:43:09;0.00;;;0.00;;
22268;SDS011;11303;50.772;19.670;2023-11-18T11:45:23;0.00;;;0.00;;
22268;SDS011;11303;50.772;19.670;2023-11-18T11:47:29;0.20;;;0.20;;
22268;SDS011;11303;50.772;19.670;2023-11-18T11:49:40;0.10;;;0.10;;
22268;SDS011;11303;50.772;19.670;2023-11-18T11:51:57;1.27;;;1.17;;
22268;SDS011;11303;50.772;19.670;2023-11-18T11:56:16;0.00;;;0.00;;
22268;SDS011;11303;50.772;19.670;2023-11-18T11:58:26;0.10;;;0.10;;
22268;SDS011;11303;50.772;19.670;2023-11-18T12:00:29;0.10;;;0.10;;
22268;SDS011;11303;50.772;19.670;2023-11-18T12:02:36;0.10;;;0.10;;
22268;SDS011;11303;50.772;19.670;2023-11-18T12:04:38;0.10;;;0.10;;
22268;SDS011;11303;50.772;19.670;2023-11-18T12:06:43;0.00;;;0.00;;
22268;SDS011;11303;50.772;19.670;2023-11-18T12:08:46;0.15;;;0.15;;
22268;SDS011;11303;50.772;19.670;2023-11-18T12:10:51;0.00;;;0.00;;
22268;SDS011;11303;50.772;19.670;2023-11-18T12:15:47;0.00;;;0.00;;
22268;SDS011;11303;50.772;19.670;2023-11-18T12:20:06;0.10;;;0.10;;